createdAt,value
2019-04-20T00:01:47.423Z,70.70
2019-04-20T00:04:22.567Z,69.00
2019-04-20T00:06:52.841Z,70.90
2019-04-20T00:09:26.593Z,71.20
2019-04-20T00:12:03.824Z,71.00
2019-04-20T00:14:29.596Z,71.00
2019-04-20T00:16:58.790Z,69.80
2019-04-20T00:19:37.428Z,72.20
2019-04-20T00:22:09.919Z,72.00
2019-04-20T00:25:03.520Z,71.40
2019-04-20T00:27:53.986Z,73.40
2019-04-20T00:30:26.204Z,75.10
2019-04-20T00:32:48.993Z,74.40
2019-04-20T00:35:04.120Z,74.90
2019-04-20T00:37:35.928Z,75.00
2019-04-20T00:40:07.868Z,75.50
2019-04-20T00:42:45.154Z,75.90
2019-04-20T00:45:18.155Z,76.30
2019-04-20T00:47:51.186Z,76.30
2019-04-20T00:50:30.082Z,77.30
2019-04-20T00:53:02.175Z,77.30
2019-04-20T00:55:17.060Z,78.20
2019-04-20T00:57:54.672Z,77.50
2019-04-20T01:00:38.315Z,77.70
2019-04-20T01:03:10.215Z,77.80
2019-04-20T01:06:00.418Z,80.10
2019-04-20T01:08:34.032Z,77.30
2019-04-20T01:11:06.111Z,78.50
2019-04-20T01:13:42.178Z,80.10
2019-04-20T01:16:21.730Z,79.70
2019-04-20T01:18:40.348Z,79.70
2019-04-20T01:21:16.527Z,80.60
2019-04-20T01:23:49.613Z,81.00
2019-04-20T01:26:18.067Z,80.90
2019-04-20T01:28:58.478Z,80.40
2019-04-20T01:31:29.501Z,82.20
2019-04-20T01:33:58.885Z,81.80
2019-04-20T01:36:40.623Z,82.20
2019-04-20T01:39:07.776Z,82.10
2019-04-20T01:41:26.495Z,81.90
2019-04-20T01:43:56.649Z,81.80
2019-04-20T01:46:29.707Z,80.30
2019-04-20T01:49:06.972Z,81.10
2019-04-20T01:51:42.923Z,80.90
2019-04-20T01:54:21.267Z,80.10
2019-04-20T01:56:52.270Z,80.40
2019-04-20T01:59:29.544Z,81.40
2019-04-20T02:02:22.536Z,79.90
2019-04-20T02:05:04.848Z,79.60
2019-04-20T02:07:33.741Z,78.70
2019-04-20T02:10:06.166Z,78.30
2019-04-20T02:12:35.672Z,78.30
2019-04-20T02:15:07.505Z,78.00
2019-04-20T02:17:43.552Z,80.10
2019-04-20T02:20:28.714Z,79.60
2019-04-20T02:22:55.092Z,81.20
2019-04-20T02:25:14.191Z,81.60
2019-04-20T02:27:50.510Z,82.20
2019-04-20T02:30:51.726Z,81.50
2019-04-20T02:33:34.431Z,82.70
2019-04-20T02:36:20.858Z,83.90
2019-04-20T02:39:17.545Z,85.70
2019-04-20T02:41:29.815Z,86.30
2019-04-20T02:46:31.561Z,85.30
2019-04-20T02:49:17.602Z,86.00
2019-04-20T02:54:16.900Z,84.00
2019-04-20T02:56:45.357Z,86.00
2019-04-20T02:59:42.286Z,83.10
2019-04-20T03:01:43.160Z,84.00
2019-04-20T03:03:55.994Z,82.30
2019-04-20T03:06:30.852Z,83.70
2019-04-20T03:09:17.707Z,85.40
2019-04-20T03:11:53.989Z,85.10
2019-04-20T03:14:17.433Z,85.50
2019-04-20T03:16:45.812Z,85.10
2019-04-20T03:19:17.339Z,85.50
2019-04-20T03:21:59.833Z,87.10
2019-04-20T03:24:35.705Z,87.20
2019-04-20T03:26:59.526Z,86.40
2019-04-20T03:29:56.177Z,86.90
2019-04-20T03:33:00.177Z,85.70
2019-04-20T03:37:38.064Z,88.10
2019-04-20T03:40:01.539Z,88.40
2019-04-20T03:42:18.157Z,88.70
2019-04-20T03:44:56.424Z,90.10
2019-04-20T03:47:31.410Z,89.30
2019-04-20T03:50:22.424Z,89.70
2019-04-20T03:52:57.964Z,89.00
2019-04-20T03:55:34.289Z,89.70
2019-04-20T03:58:10.225Z,90.20
2019-04-20T04:00:57.086Z,90.60
2019-04-20T04:03:47.602Z,91.30
2019-04-20T04:06:10.519Z,91.80
2019-04-20T04:08:35.374Z,92.00
2019-04-20T04:11:16.953Z,92.10
2019-04-20T04:13:31.483Z,92.40
2019-04-20T04:16:06.689Z,92.50
2019-04-20T04:18:39.062Z,92.40
2019-04-20T04:21:09.919Z,92.40
2019-04-20T04:23:56.129Z,93.00
2019-04-20T04:26:26.256Z,92.90
2019-04-20T04:29:00.622Z,93.00
2019-04-20T04:31:32.286Z,92.50
2019-04-20T04:34:02.311Z,92.90
2019-04-20T04:36:30.721Z,92.70
2019-04-20T04:39:08.875Z,92.70
2019-04-20T04:41:42.343Z,92.50
2019-04-20T04:44:09.667Z,93.10
2019-04-20T04:46:23.230Z,92.10
2019-04-20T04:48:58.373Z,92.50
2019-04-20T04:51:33.224Z,92.30
2019-04-20T04:54:03.654Z,92.30
2019-04-20T04:56:30.817Z,92.10
2019-04-20T04:59:02.267Z,92.30
2019-04-20T05:01:34.440Z,92.60
2019-04-20T05:04:28.940Z,92.80
2019-04-20T05:06:50.570Z,93.20
2019-04-20T05:09:12.502Z,92.50
2019-04-20T05:11:40.982Z,91.20
2019-04-20T05:14:18.592Z,84.20
2019-04-20T05:16:58.228Z,78.70
2019-04-20T05:19:38.503Z,79.30
2019-04-20T05:22:15.507Z,75.80
2019-04-20T05:24:48.203Z,68.80
2019-04-20T05:27:51.243Z,65.10
2019-04-20T05:30:09.866Z,65.70
2019-04-20T05:32:51.399Z,65.20
2019-04-20T05:35:31.052Z,61.50
2019-04-20T05:38:07.029Z,58.20
2019-04-20T05:40:45.190Z,57.50
2019-04-20T05:43:27.530Z,56.90
2019-04-20T05:45:52.616Z,56.00
2019-04-20T05:48:31.741Z,53.70
2019-04-20T05:51:04.366Z,51.90
2019-04-20T05:53:41.269Z,52.50
2019-04-20T05:56:10.636Z,52.00
2019-04-20T05:58:45.440Z,51.40
2019-04-20T06:01:16.137Z,50.20
2019-04-20T06:03:42.341Z,49.00
2019-04-20T06:06:15.127Z,48.40
2019-04-20T06:08:53.782Z,47.70
2019-04-20T06:11:23.469Z,48.50
2019-04-20T06:14:02.622Z,48.30
2019-04-20T06:17:11.154Z,47.50
2019-04-20T06:19:46.989Z,48.00
2019-04-20T06:22:36.498Z,46.40
2019-04-20T06:25:23.678Z,46.30
2019-04-20T06:27:39.897Z,47.00
2019-04-20T06:30:06.489Z,47.90
2019-04-20T06:33:24.585Z,49.40
2019-04-20T06:36:07.821Z,49.20
2019-04-20T06:38:44.397Z,50.00
2019-04-20T06:41:05.363Z,50.30
2019-04-20T06:43:34.791Z,50.50
2019-04-20T06:46:04.368Z,50.40
2019-04-20T06:48:35.333Z,49.40
2019-04-20T06:50:57.182Z,48.50
2019-04-20T06:53:43.397Z,47.60
2019-04-20T06:56:35.383Z,48.00
2019-04-20T06:59:12.358Z,47.30
2019-04-20T07:01:42.318Z,47.80
2019-04-20T07:04:30.341Z,47.60
2019-04-20T07:07:07.060Z,47.30
2019-04-20T07:09:16.979Z,47.70
2019-04-20T07:11:42.617Z,48.00
2019-04-20T07:14:00.993Z,48.20
2019-04-20T07:17:34.915Z,48.40
2019-04-20T07:19:56.413Z,48.30
2019-04-20T07:25:10.599Z,47.50
2019-04-20T07:27:41.585Z,48.80
2019-04-20T07:30:14.986Z,48.60
2019-04-20T07:32:52.562Z,48.80
2019-04-20T07:35:17.421Z,48.00
2019-04-20T07:40:23.214Z,45.60
2019-04-20T07:42:55.556Z,44.70
2019-04-20T07:45:29.593Z,44.60
2019-04-20T07:48:07.476Z,45.30
2019-04-20T07:50:26.163Z,46.60
2019-04-20T07:52:51.669Z,47.90
2019-04-20T07:55:47.846Z,48.70
2019-04-20T07:57:59.029Z,47.90
2019-04-20T08:00:51.692Z,48.40
2019-04-20T08:03:39.334Z,49.30
2019-04-20T08:06:14.475Z,50.50
2019-04-20T08:08:55.898Z,52.80
2019-04-20T08:11:28.849Z,55.70
2019-04-20T08:14:06.175Z,57.80
2019-04-20T08:16:54.654Z,58.60
2019-04-20T08:19:08.183Z,57.40
2019-04-20T08:24:08.591Z,58.50
2019-04-20T08:26:26.926Z,58.60
2019-04-20T08:29:04.878Z,58.70
2019-04-20T08:32:22.856Z,59.20
2019-04-20T08:35:03.190Z,59.00
2019-04-20T08:37:34.369Z,59.80
2019-04-20T08:40:07.471Z,60.70
2019-04-20T08:42:37.862Z,60.50
2019-04-20T08:45:09.113Z,60.90
2019-04-20T08:47:44.744Z,60.50
2019-04-20T08:50:19.874Z,59.90
2019-04-20T08:55:18.075Z,59.40
2019-04-20T08:57:30.892Z,59.30
2019-04-20T09:00:03.527Z,59.00
2019-04-20T09:02:32.988Z,58.80
2019-04-20T09:05:11.721Z,59.50
2019-04-20T09:07:49.078Z,59.90
2019-04-20T09:12:57.410Z,58.90
2019-04-20T09:15:13.173Z,57.90
2019-04-20T09:17:57.165Z,56.80
2019-04-20T09:20:33.035Z,57.20
2019-04-20T09:23:18.612Z,55.60
2019-04-20T09:26:06.235Z,56.30
2019-04-20T09:28:31.861Z,58.10
2019-04-20T09:31:26.900Z,56.80
2019-04-20T09:34:24.802Z,55.80
2019-04-20T09:37:16.758Z,54.90
2019-04-20T09:40:02.343Z,53.60
2019-04-20T09:42:40.119Z,53.90
2019-04-20T09:45:19.840Z,52.70
2019-04-20T09:47:49.488Z,53.00
2019-04-20T09:50:31.943Z,53.50
2019-04-20T09:53:04.086Z,52.60
2019-04-20T09:55:31.386Z,52.90
2019-04-20T09:58:06.270Z,52.20
2019-04-20T10:00:41.918Z,52.40
2019-04-20T10:02:58.326Z,52.50
2019-04-20T10:05:29.550Z,52.10
2019-04-20T10:08:03.353Z,51.40
2019-04-20T10:10:38.144Z,52.60
2019-04-20T10:13:05.534Z,53.20
2019-04-20T10:15:35.403Z,52.40
2019-04-20T10:18:05.789Z,52.20
2019-04-20T10:20:38.287Z,49.50
2019-04-20T10:23:08.708Z,51.40
2019-04-20T10:25:38.832Z,51.70
2019-04-20T10:28:09.573Z,50.90
2019-04-20T10:30:39.175Z,50.80
2019-04-20T10:33:09.965Z,48.20
2019-04-20T10:35:41.349Z,44.00
2019-04-20T10:38:15.995Z,44.90
2019-04-20T10:40:55.837Z,44.90
2019-04-20T10:43:17.698Z,46.80
2019-04-20T10:45:48.849Z,42.90
2019-04-20T10:48:19.441Z,44.50
2019-04-20T10:50:49.451Z,44.70
2019-04-20T10:53:19.692Z,44.80
2019-04-20T10:55:51.457Z,45.40
2019-04-20T10:58:21.869Z,44.00
2019-04-20T11:00:53.445Z,45.70
2019-04-20T11:03:24.850Z,44.20
2019-04-20T11:05:56.456Z,42.50
2019-04-20T11:08:26.598Z,44.20
2019-04-20T11:11:08.346Z,44.50
2019-04-20T11:13:29.631Z,44.10
2019-04-20T11:16:00.270Z,43.60
2019-04-20T11:18:31.301Z,46.10
2019-04-20T11:21:01.552Z,44.70
2019-04-20T11:23:34.123Z,43.90
2019-04-20T11:26:04.430Z,43.80
2019-04-20T11:28:34.469Z,43.50
2019-04-20T11:31:06.015Z,45.40
2019-04-20T11:33:36.219Z,43.50
2019-04-20T11:36:07.430Z,43.30
2019-04-20T11:38:38.676Z,44.00
2019-04-20T11:41:16.326Z,44.90
2019-04-20T11:43:41.849Z,43.50
2019-04-20T11:46:12.326Z,44.00
2019-04-20T11:48:43.487Z,42.00
2019-04-20T11:51:13.751Z,43.60
2019-04-20T11:53:45.956Z,43.00
2019-04-20T11:56:22.075Z,43.90
2019-04-20T11:58:49.102Z,42.40
2019-04-20T12:01:47.673Z,42.50
2019-04-20T12:04:24.882Z,42.00
2019-04-20T12:06:43.642Z,42.60
2019-04-20T12:09:14.939Z,43.20
2019-04-20T12:11:59.558Z,41.10
2019-04-20T12:14:18.805Z,40.90
2019-04-20T12:16:49.936Z,41.40
2019-04-20T12:19:20.712Z,41.50
2019-04-20T12:21:51.668Z,42.00
2019-04-20T12:24:22.608Z,41.70
2019-04-20T12:26:54.365Z,43.20
2019-04-20T12:29:25.810Z,41.70
2019-04-20T12:32:00.040Z,42.30
2019-04-20T12:34:28.691Z,40.40
2019-04-20T12:36:58.908Z,39.30
2019-04-20T12:39:29.048Z,40.30
2019-04-20T12:42:03.960Z,40.90
2019-04-20T12:44:32.109Z,42.10
2019-04-20T12:47:03.632Z,40.90
2019-04-20T12:49:33.784Z,40.80
2019-04-20T12:52:06.455Z,40.20
2019-04-20T12:54:36.887Z,39.50
2019-04-20T12:57:07.011Z,38.60
2019-04-20T12:59:37.323Z,39.20
2019-04-20T13:02:09.158Z,40.70
2019-04-20T13:04:39.496Z,40.80
2019-04-20T13:07:10.108Z,40.30
2019-04-20T13:09:48.645Z,39.70
2019-04-20T13:12:44.651Z,39.40
2019-04-20T13:15:38.263Z,39.50
2019-04-20T13:18:09.475Z,40.30
2019-04-20T13:20:41.824Z,39.60
2019-04-20T13:23:15.035Z,40.30
2019-04-20T13:25:45.093Z,39.40
2019-04-20T13:28:16.827Z,40.10
2019-04-20T13:30:48.000Z,38.00
2019-04-20T13:33:18.159Z,38.80
2019-04-20T13:35:48.099Z,37.10
2019-04-20T13:38:20.254Z,38.50
2019-04-20T13:40:51.473Z,38.10
2019-04-20T13:43:23.726Z,40.60
2019-04-20T13:45:55.160Z,39.70
2019-04-20T13:48:26.670Z,38.50
2019-04-20T13:50:58.277Z,40.50
2019-04-20T13:53:29.708Z,38.90
2019-04-20T13:56:01.404Z,40.20
2019-04-20T13:58:50.032Z,41.30
2019-04-20T14:01:46.337Z,41.30
2019-04-20T14:04:18.956Z,40.70
2019-04-20T14:06:51.188Z,38.60
2019-04-20T14:09:23.402Z,39.40
2019-04-20T14:11:53.720Z,39.40
2019-04-20T14:14:23.793Z,40.10
2019-04-20T14:16:54.779Z,38.60
2019-04-20T14:19:25.284Z,38.00
2019-04-20T14:21:56.441Z,39.20
2019-04-20T14:24:26.813Z,40.50
2019-04-20T14:26:57.091Z,41.00
2019-04-20T14:29:27.541Z,41.00
2019-04-20T14:32:00.144Z,40.00
2019-04-20T14:34:29.284Z,40.60
2019-04-20T14:37:00.256Z,41.20
2019-04-20T14:39:32.275Z,40.00
2019-04-20T14:42:04.576Z,37.60
2019-04-20T14:44:34.453Z,39.40
2019-04-20T14:47:05.647Z,39.50
2019-04-20T14:49:36.695Z,39.20
2019-04-20T14:52:08.226Z,40.20
2019-04-20T14:54:39.424Z,40.30
2019-04-20T14:57:09.725Z,40.10
2019-04-20T14:59:43.539Z,39.60
2019-04-20T15:02:17.186Z,39.00
2019-04-20T15:04:47.489Z,39.60
2019-04-20T15:07:18.281Z,40.30
2019-04-20T15:09:49.188Z,40.40
2019-04-20T15:12:21.144Z,40.80
2019-04-20T15:14:52.558Z,40.90
2019-04-20T15:17:45.799Z,39.80
2019-04-20T15:20:35.236Z,38.90
2019-04-20T15:23:15.217Z,39.10
2019-04-20T15:25:46.374Z,38.80
2019-04-20T15:28:16.746Z,39.50
2019-04-20T15:30:47.888Z,38.90
2019-04-20T15:33:18.874Z,39.00
2019-04-20T15:35:48.746Z,38.40
2019-04-20T15:38:20.839Z,40.50
2019-04-20T15:40:51.128Z,39.40
2019-04-20T15:43:24.381Z,38.80
2019-04-20T15:45:54.786Z,38.20
2019-04-20T15:48:25.955Z,38.10
2019-04-20T15:50:56.178Z,38.20
2019-04-20T15:53:26.628Z,38.30
2019-04-20T15:55:57.580Z,38.60
2019-04-20T15:58:28.243Z,38.20
2019-04-20T16:00:58.795Z,38.60
2019-04-20T16:03:48.533Z,39.30
2019-04-20T16:06:19.024Z,38.90
2019-04-20T16:08:52.284Z,37.50
2019-04-20T16:11:22.782Z,38.10
2019-04-20T16:13:55.419Z,36.70
2019-04-20T16:16:25.701Z,36.60
2019-04-20T16:18:56.978Z,37.00
2019-04-20T16:21:31.277Z,37.20
2019-04-20T16:24:06.686Z,37.80
2019-04-20T16:26:47.460Z,36.00
2019-04-20T16:29:17.725Z,35.70
2019-04-20T16:31:50.289Z,34.70
2019-04-20T16:34:40.346Z,34.30
2019-04-20T16:37:10.939Z,35.30
2019-04-20T16:39:42.898Z,34.90
2019-04-20T16:42:15.961Z,34.10
2019-04-20T16:44:49.382Z,34.10
2019-04-20T16:47:19.610Z,34.80
2019-04-20T16:49:50.957Z,35.00
2019-04-20T16:52:22.808Z,36.70
2019-04-20T16:54:53.526Z,37.20
2019-04-20T16:57:24.017Z,36.10
2019-04-20T16:59:56.432Z,36.40
2019-04-20T17:02:26.661Z,36.90
2019-04-20T17:04:57.061Z,38.60
2019-04-20T17:07:37.262Z,38.90
2019-04-20T17:10:08.153Z,39.40
2019-04-20T17:12:39.944Z,39.20
2019-04-20T17:15:11.768Z,38.40
2019-04-20T17:17:43.368Z,39.30
2019-04-20T17:20:15.583Z,39.90
2019-04-20T17:22:46.416Z,39.40
2019-04-20T17:25:17.350Z,40.20
2019-04-20T17:28:04.760Z,39.50
2019-04-20T17:30:54.907Z,39.40
2019-04-20T17:33:49.557Z,39.30
2019-04-20T17:36:19.027Z,39.30
2019-04-20T17:38:51.673Z,39.30
2019-04-20T17:41:39.178Z,38.60
2019-04-20T17:44:05.874Z,38.80
2019-04-20T17:46:38.400Z,38.70
2019-04-20T17:49:09.321Z,38.50
2019-04-20T17:51:48.990Z,38.60
2019-04-20T17:54:14.223Z,38.40
2019-04-20T17:56:46.672Z,38.30
2019-04-20T17:59:17.053Z,38.70
2019-04-20T18:02:24.038Z,38.80
2019-04-20T18:07:58.701Z,39.10
2019-04-20T18:10:26.009Z,39.50
2019-04-20T18:12:45.812Z,39.70
2019-04-20T18:15:33.536Z,40.30
2019-04-20T18:18:24.113Z,40.50
2019-04-20T18:21:15.195Z,40.00
2019-04-20T18:23:48.184Z,40.70
2019-04-20T18:26:38.296Z,40.80
2019-04-20T18:29:10.330Z,41.00
2019-04-20T18:31:39.626Z,40.90
2019-04-20T18:34:18.362Z,40.70
2019-04-20T18:36:47.686Z,40.70
2019-04-20T18:39:27.260Z,40.50
2019-04-20T18:41:56.704Z,40.40
2019-04-20T18:44:30.554Z,40.80
2019-04-20T18:47:16.720Z,40.80
2019-04-20T18:49:38.509Z,40.90
2019-04-20T18:51:59.823Z,40.80
2019-04-20T18:54:36.766Z,40.80
2019-04-20T18:57:03.607Z,40.40
2019-04-20T18:59:40.565Z,40.30
2019-04-20T19:02:12.759Z,40.20
2019-04-20T19:04:39.737Z,40.10
2019-04-20T19:07:10.054Z,40.60
2019-04-20T19:09:41.048Z,40.90
2019-04-20T19:12:14.580Z,40.60
2019-04-20T19:15:03.430Z,40.90
2019-04-20T19:18:00.892Z,40.60
2019-04-20T19:20:30.747Z,40.20
2019-04-20T19:23:02.127Z,40.90
2019-04-20T19:25:36.992Z,40.60
2019-04-20T19:28:05.629Z,40.40
2019-04-20T19:30:44.994Z,40.90
2019-04-20T19:33:26.143Z,41.30
2019-04-20T19:35:51.611Z,41.10
2019-04-20T19:38:19.001Z,41.70
2019-04-20T19:40:51.524Z,41.70
2019-04-20T19:43:23.324Z,41.60
2019-04-20T19:46:32.181Z,41.70
2019-04-20T19:48:32.260Z,41.40
2019-04-20T19:51:12.938Z,41.90
2019-04-20T19:53:42.923Z,44.50
2019-04-20T19:56:06.288Z,44.90
2019-04-20T19:58:35.658Z,45.90
2019-04-20T20:00:59.472Z,47.30
2019-04-20T20:03:29.973Z,49.60
2019-04-20T20:06:01.396Z,51.10
2019-04-20T20:08:34.833Z,52.00
2019-04-20T20:11:05.103Z,53.00
2019-04-20T20:13:41.995Z,50.90
2019-04-20T20:16:14.465Z,48.80
2019-04-20T20:18:55.861Z,47.70
2019-04-20T20:21:23.828Z,47.20
2019-04-20T20:23:43.883Z,47.40
2019-04-20T20:26:24.373Z,45.80
2019-04-20T20:28:52.712Z,44.90
2019-04-20T20:31:28.289Z,45.20
2019-04-20T20:34:03.078Z,45.40
2019-04-20T20:36:30.795Z,45.70
2019-04-20T20:39:02.881Z,45.80
2019-04-20T20:41:30.038Z,46.10
2019-04-20T20:44:06.944Z,46.40
2019-04-20T20:46:37.847Z,46.40
2019-04-20T20:49:16.593Z,46.20
2019-04-20T20:52:01.059Z,45.80
2019-04-20T20:54:15.448Z,45.80
2019-04-20T20:56:46.681Z,45.80
2019-04-20T20:59:14.486Z,45.80
2019-04-20T21:01:50.176Z,45.60
2019-04-20T21:04:12.727Z,46.10
2019-04-20T21:06:44.600Z,46.20
2019-04-20T21:09:16.537Z,46.30
2019-04-20T21:11:51.144Z,46.00
2019-04-20T21:14:21.989Z,45.80
2019-04-20T21:17:00.429Z,45.80
2019-04-20T21:20:02.061Z,46.30
2019-04-20T21:22:22.188Z,46.50
2019-04-20T21:24:50.082Z,45.80
2019-04-20T21:27:21.954Z,45.40
2019-04-20T21:29:53.347Z,46.00
2019-04-20T21:32:23.725Z,46.60
2019-04-20T21:35:00.513Z,46.80
2019-04-20T21:37:27.248Z,47.80
2019-04-20T21:40:01.511Z,47.90
2019-04-20T21:42:34.759Z,48.00
2019-04-20T21:45:06.971Z,48.30
2019-04-20T21:47:36.255Z,48.10
2019-04-20T21:50:21.642Z,47.90
2019-04-20T21:52:42.423Z,48.20
2019-04-20T21:55:08.264Z,48.70
2019-04-20T21:57:43.379Z,48.80
2019-04-20T22:00:20.333Z,49.40
2019-04-20T22:02:52.137Z,49.70
2019-04-20T22:05:16.735Z,49.40
2019-04-20T22:07:46.800Z,50.20
2019-04-20T22:10:20.238Z,52.50
2019-04-20T22:12:54.065Z,52.70
2019-04-20T22:15:27.150Z,53.60
2019-04-20T22:17:52.593Z,54.00
2019-04-20T22:20:31.043Z,55.40
2019-04-20T22:23:06.054Z,55.70
2019-04-20T22:25:42.297Z,56.30
2019-04-20T22:28:00.674Z,57.70
2019-04-20T22:30:32.231Z,55.50
2019-04-20T22:33:08.015Z,56.60
2019-04-20T22:35:44.264Z,54.90
2019-04-20T22:38:18.790Z,56.20
2019-04-20T22:40:49.034Z,54.60
2019-04-20T22:43:25.951Z,56.20
2019-04-20T22:45:53.847Z,57.00
2019-04-20T22:48:23.321Z,58.90
2019-04-20T22:51:14.306Z,59.60
2019-04-20T22:53:37.628Z,60.00
2019-04-20T22:56:18.786Z,60.00
2019-04-20T22:58:40.449Z,60.00
2019-04-20T23:01:04.524Z,62.00
2019-04-20T23:03:32.731Z,62.30
2019-04-20T23:06:03.124Z,61.90
2019-04-20T23:08:34.924Z,62.90
2019-04-20T23:11:09.330Z,62.80
2019-04-20T23:13:42.850Z,62.50
2019-04-20T23:16:09.265Z,63.60
2019-04-20T23:18:40.298Z,63.80
2019-04-20T23:21:13.817Z,64.30
2019-04-20T23:23:41.894Z,64.30
2019-04-20T23:26:12.671Z,65.10
2019-04-20T23:28:48.290Z,65.50
2019-04-20T23:31:20.180Z,65.80
2019-04-20T23:33:49.885Z,66.60
2019-04-20T23:36:33.065Z,66.40
2019-04-20T23:38:57.387Z,65.90
2019-04-20T23:41:24.299Z,66.60
2019-04-20T23:44:16.939Z,66.80
2019-04-20T23:46:52.530Z,66.10
2019-04-20T23:49:29.752Z,66.70
2019-04-20T23:52:23.465Z,65.30
2019-04-20T23:54:31.867Z,65.90
2019-04-20T23:57:01.787Z,67.10
2019-04-20T23:59:37.453Z,66.80
